Time;durP1;ratioP1;P1;durP2;ratioP2;P2;SDS_P1;SDS_P2;PMS_P1;PMS_P2;Temp;Humidity;BMP_temperature;BMP_pressure;BME280_temperature;BME280_humidity;BME280_pressure;Samples;Min_cycle;Max_cycle;Signal;HPM_P1;HPM_P2
2022/01/22 00:00:18;;;;;;;2.25;0.85;;;;;;;12.80;37.48;97450.38;5117210;28;20027;-25
2022/01/22 00:02:44;;;;;;;1.73;1.20;;;;;;;12.81;37.38;97448.41;5116964;28;20100;-26
2022/01/22 00:05:11;;;;;;;1.92;1.00;;;;;;;12.83;37.32;97446.06;5116908;28;20015;-25
2022/01/22 00:07:37;;;;;;;1.58;0.93;;;;;;;12.73;37.47;97438.84;5116925;28;20027;-25
2022/01/22 00:10:05;;;;;;;1.52;0.80;;;;;;;12.74;37.43;97440.34;5116991;28;20015;-26
2022/01/22 00:14:58;;;;;;;1.63;0.80;;;;;;;12.77;37.34;97434.09;5116860;28;20023;-25
2022/01/22 00:17:24;;;;;;;2.33;0.93;;;;;;;12.83;37.07;97432.44;5116933;28;20023;-25
2022/01/22 00:19:49;;;;;;;1.35;0.93;;;;;;;12.76;36.96;97440.72;5116744;28;20024;-25
2022/01/22 00:22:15;;;;;;;1.15;0.70;;;;;;;12.70;37.15;97428.78;5116610;28;20027;-25
2022/01/22 00:24:41;;;;;;;0.98;0.85;;;;;;;12.70;37.21;97434.22;5116552;28;20039;-25
2022/01/22 00:27:07;;;;;;;1.52;0.75;;;;;;;12.74;36.77;97438.41;5116787;28;20096;-25
2022/01/22 00:29:32;;;;;;;1.67;0.90;;;;;;;12.62;36.48;97433.56;5116642;28;20197;-25
2022/01/22 00:31:58;;;;;;;1.40;0.90;;;;;;;12.73;36.40;97430.69;5116459;28;20378;-25
2022/01/22 00:34:23;;;;;;;1.67;0.90;;;;;;;12.67;36.91;97432.34;5116528;28;20022;-25
2022/01/22 00:36:48;;;;;;;1.13;0.70;;;;;;;12.77;36.85;97429.41;5116548;28;20027;-25
2022/01/22 00:39:14;;;;;;;1.38;0.80;;;;;;;12.77;36.30;97428.66;5116192;28;20522;-25
2022/01/22 00:41:40;;;;;;;1.85;0.90;;;;;;;12.70;36.62;97432.28;5116646;28;20026;-26
2022/01/22 00:44:05;;;;;;;1.52;0.88;;;;;;;12.75;36.62;97436.47;5115578;28;20031;-25
2022/01/22 00:46:31;;;;;;;1.80;1.00;;;;;;;12.77;35.88;97428.66;5116485;28;20020;-25
2022/01/22 00:48:57;;;;;;;1.35;0.85;;;;;;;12.69;36.43;97428.00;5116138;28;20099;-25
2022/01/22 00:51:23;;;;;;;1.70;0.95;;;;;;;12.71;35.92;97435.78;5116302;28;20420;-25
2022/01/22 00:53:48;;;;;;;1.35;0.98;;;;;;;12.73;35.88;97436.13;5115930;28;20028;-25
2022/01/22 00:56:14;;;;;;;2.35;0.90;;;;;;;12.77;35.80;97439.53;5115998;28;20019;-25
2022/01/22 00:58:40;;;;;;;2.45;1.00;;;;;;;12.72;35.96;97431.88;5115818;28;20052;-25
2022/01/22 01:01:06;;;;;;;1.25;0.77;;;;;;;12.68;35.62;97437.38;5115664;28;20023;-25
2022/01/22 01:03:33;;;;;;;0.93;0.70;;;;;;;12.67;35.45;97445.94;5116237;28;20023;-25
2022/01/22 01:06:00;;;;;;;1.38;0.80;;;;;;;12.72;36.03;97454.41;5116169;28;20453;-25
2022/01/22 01:08:27;;;;;;;2.42;0.90;;;;;;;12.76;35.53;97451.59;5115912;28;20117;-25
2022/01/22 01:10:53;;;;;;;1.45;0.75;;;;;;;12.74;35.57;97446.56;5115700;28;20023;-25
2022/01/22 01:13:19;;;;;;;1.40;0.80;;;;;;;12.77;35.39;97450.41;5115701;28;20031;-25
2022/01/22 01:16:13;;;;;;;0.90;0.60;;;;;;;12.82;35.10;97449.97;5115435;28;20376;-25
2022/01/22 01:32:21;;;;;;;1.73;0.85;;;;;;;12.69;35.32;97465.34;5115436;28;20388;-25
2022/01/22 01:34:49;;;;;;;1.00;0.80;;;;;;;12.66;34.80;97471.63;5115407;28;20023;-25
2022/01/22 01:37:17;;;;;;;2.30;0.60;;;;;;;12.69;35.24;97470.78;5115038;28;20027;-25
2022/01/22 01:39:46;;;;;;;0.95;0.70;;;;;;;12.79;34.80;97475.28;5115053;28;20478;-25
2022/01/22 01:42:18;;;;;;;1.30;0.63;;;;;;;12.65;34.56;97459.19;5096795;28;20031;-25
2022/01/22 01:44:44;;;;;;;2.85;0.80;;;;;;;12.69;35.11;97462.63;5115054;28;20475;-25
2022/01/22 01:47:13;;;;;;;1.85;0.57;;;;;;;12.57;35.03;97464.00;5115021;28;20483;-25
2022/01/22 01:49:38;;;;;;;0.88;0.52;;;;;;;12.66;34.51;97466.94;5114932;28;20030;-26
2022/01/22 01:52:07;;;;;;;1.58;0.80;;;;;;;12.67;34.82;97456.81;5114747;28;20024;-25
2022/01/22 01:57:38;;;;;;;1.80;0.90;;;;;;;12.64;34.92;97446.75;5076428;28;20405;-25
2022/01/22 02:00:10;;;;;;;1.25;0.57;;;;;;;12.64;34.98;97444.03;5114999;28;20042;-25
2022/01/22 02:02:37;;;;;;;3.85;1.05;;;;;;;12.67;34.81;97454.88;5114816;28;20026;-25
2022/01/22 02:05:03;;;;;;;1.02;0.60;;;;;;;12.67;34.61;97449.44;5115078;28;20463;-25
2022/01/22 02:07:28;;;;;;;1.15;0.60;;;;;;;12.75;34.60;97441.91;5114421;28;20382;-25
2022/01/22 02:09:54;;;;;;;0.95;0.50;;;;;;;12.73;34.39;97444.28;5114547;28;20019;-26
2022/01/22 02:12:42;;;;;;;0.93;0.60;;;;;;;12.69;34.52;97455.22;5114485;28;20112;-25
2022/01/22 02:26:08;;;;;;;1.33;0.68;;;;;;;12.64;34.02;97463.09;5114402;28;20440;-25
2022/01/22 02:28:34;;;;;;;0.88;0.60;;;;;;;12.55;34.33;97466.34;5114186;28;20031;-25
2022/01/22 02:31:13;;;;;;;1.50;0.77;;;;;;;12.73;34.64;97472.28;5114280;28;20043;-25
2022/01/22 02:36:22;;;;;;;0.73;0.40;;;;;;;12.69;34.62;97471.56;5114351;28;20467;-25
2022/01/22 02:39:02;;;;;;;1.10;0.68;;;;;;;12.71;34.20;97474.66;5113973;28;20106;-25
2022/01/22 02:41:27;;;;;;;1.20;0.70;;;;;;;12.71;34.17;97479.31;5114400;28;20098;-25
2022/01/22 02:43:55;;;;;;;1.85;0.80;;;;;;;12.64;33.97;97477.47;5114040;28;20447;-25
2022/01/22 02:46:26;;;;;;;0.90;0.63;;;;;;;12.62;34.45;97470.91;5114046;28;20058;-26
2022/01/22 02:48:54;;;;;;;2.22;0.68;;;;;;;12.73;34.20;97468.78;5113727;28;20016;-25
2022/01/22 02:51:21;;;;;;;0.85;0.60;;;;;;;12.73;34.13;97472.28;5113952;28;20015;-25
2022/01/22 02:53:49;;;;;;;0.63;0.50;;;;;;;12.72;34.20;97469.97;5113889;28;20069;-25
2022/01/22 02:56:15;;;;;;;1.70;0.73;;;;;;;12.64;34.09;97469.31;5113784;28;20023;-25
2022/01/22 02:58:40;;;;;;;1.02;0.55;;;;;;;12.49;33.88;97468.75;5113632;28;20043;-25
2022/01/22 03:01:06;;;;;;;0.98;0.80;;;;;;;12.63;34.25;97464.28;5113710;28;20102;-25
2022/01/22 03:03:31;;;;;;;1.00;0.55;;;;;;;12.65;33.77;97453.75;5113806;28;20112;-25
2022/01/22 03:05:57;;;;;;;0.77;0.40;;;;;;;12.74;33.76;97459.41;5113493;28;20033;-25
2022/01/22 03:08:28;;;;;;;2.05;0.60;;;;;;;12.70;33.93;97456.00;5113332;28;20027;-25
2022/01/22 03:10:55;;;;;;;1.08;0.60;;;;;;;12.70;34.38;97456.78;5113600;28;20019;-25
2022/01/22 03:16:11;;;;;;;1.52;0.80;;;;;;;12.71;34.16;97457.53;5113556;28;20024;-25
2022/01/22 03:29:20;;;;;;;1.23;0.57;;;;;;;12.65;33.84;97464.63;5113864;28;20529;-25
2022/01/22 03:31:47;;;;;;;2.28;0.80;;;;;;;12.67;34.27;97467.72;5095161;28;20031;-25
2022/01/22 03:34:14;;;;;;;1.10;0.80;;;;;;;12.71;33.76;97474.66;5113445;28;20061;-25
2022/01/22 03:36:39;;;;;;;2.63;0.68;;;;;;;12.72;33.41;97470.75;5113353;28;20039;-25
2022/01/22 03:39:07;;;;;;;1.23;0.80;;;;;;;12.73;33.83;97471.50;5113226;28;20464;-25
2022/01/22 03:41:34;;;;;;;1.20;0.50;;;;;;;12.65;33.63;97465.41;5113248;28;20040;-26
2022/01/22 03:43:59;;;;;;;4.00;0.90;;;;;;;12.63;33.35;97472.44;5113358;28;20030;-25
2022/01/22 03:46:25;;;;;;;2.97;0.73;;;;;;;12.73;33.59;97471.50;5113453;28;20024;-25
2022/01/22 03:48:50;;;;;;;1.65;0.88;;;;;;;12.63;33.66;97477.88;5113254;28;20023;-25
2022/01/22 03:51:16;;;;;;;1.20;0.70;;;;;;;12.68;33.76;97477.41;5113426;28;20478;-25
2022/01/22 03:53:42;;;;;;;1.80;0.70;;;;;;;12.66;33.69;97475.09;5113300;28;20056;-25
2022/01/22 03:56:09;;;;;;;3.03;0.93;;;;;;;12.66;33.70;97479.78;5113266;28;20016;-25
2022/01/22 03:58:39;;;;;;;1.10;0.60;;;;;;;12.56;33.49;97481.50;5112806;28;20043;-25
2022/01/22 04:03:57;;;;;;;1.30;0.70;;;;;;;12.56;33.58;97485.00;5113320;28;20035;-25
2022/01/22 04:08:57;;;;;;;1.77;0.77;;;;;;;12.62;33.33;97482.56;5113072;28;20024;-25
2022/01/22 04:11:23;;;;;;;1.70;0.80;;;;;;;12.58;33.09;97479.91;5112960;28;20024;-26
2022/01/22 04:13:51;;;;;;;1.13;0.80;;;;;;;12.59;33.26;97489.63;5112901;28;20035;-25
2022/01/22 04:16:19;;;;;;;1.65;0.98;;;;;;;12.58;33.21;97488.06;5112932;28;20051;-25
2022/01/22 04:27:00;;;;;;;0.70;0.45;;;;;;;12.53;33.78;97491.25;5116988;28;20031;-25
2022/01/22 04:29:27;;;;;;;1.55;0.68;;;;;;;12.56;33.48;97487.72;5116616;28;20429;-26
2022/01/22 04:31:53;;;;;;;2.53;1.02;;;;;;;12.58;33.57;97490.78;5116632;28;20040;-25
2022/01/22 04:34:19;;;;;;;1.45;0.70;;;;;;;12.49;33.43;97498.69;5116359;28;20015;-25
2022/01/22 04:36:45;;;;;;;1.48;0.90;;;;;;;12.54;33.23;97500.97;5116333;28;20034;-25
2022/01/22 04:39:11;;;;;;;1.88;0.70;;;;;;;12.46;33.34;97499.53;5116367;28;20045;-25
2022/01/22 04:41:37;;;;;;;1.05;0.70;;;;;;;12.59;33.53;97495.06;5116385;28;20463;-25
2022/01/22 04:44:05;;;;;;;1.92;0.70;;;;;;;12.56;33.02;97501.31;5116191;28;20119;-25
2022/01/22 04:49:13;;;;;;;2.17;1.20;;;;;;;12.64;33.67;97503.91;5116361;28;20480;-25
2022/01/22 04:57:07;;;;;;;1.30;0.80;;;;;;;12.62;33.28;97507.03;5115956;28;20065;-25
2022/01/22 04:59:32;;;;;;;1.33;0.70;;;;;;;12.70;33.27;97515.88;5115687;28;20387;-25
2022/01/22 05:01:58;;;;;;;2.47;0.70;;;;;;;12.54;33.14;97509.13;5115941;28;20020;-25
2022/01/22 05:04:24;;;;;;;1.92;0.60;;;;;;;12.49;32.81;97504.13;5115841;28;20420;-25
2022/01/22 05:06:49;;;;;;;1.20;0.65;;;;;;;12.51;32.98;97520.81;5115949;28;20019;-25
2022/01/22 05:09:15;;;;;;;2.00;0.60;;;;;;;12.64;33.00;97531.13;5115938;28;20023;-25
2022/01/22 05:11:41;;;;;;;2.15;0.90;;;;;;;12.55;32.99;97537.88;5115712;28;20019;-25
2022/01/22 05:14:06;;;;;;;1.15;0.60;;;;;;;12.64;33.03;97529.19;5115644;28;20181;-25
2022/01/22 05:16:32;;;;;;;1.88;0.88;;;;;;;12.62;33.20;97533.50;5115715;28;20019;-25
2022/01/22 05:19:02;;;;;;;1.65;0.60;;;;;;;12.50;32.96;97530.16;5115438;28;20097;-26
2022/01/22 05:21:31;;;;;;;1.42;0.80;;;;;;;12.56;32.85;97550.31;5115827;28;20019;-25
2022/01/22 05:24:00;;;;;;;1.73;0.70;;;;;;;12.63;32.67;97543.97;5115559;28;20023;-25
2022/01/22 05:31:38;;;;;;;1.48;0.80;;;;;;;12.65;33.07;97557.16;5115284;28;20016;-26
2022/01/22 05:39:25;;;;;;;1.48;0.70;;;;;;;12.48;33.15;97572.59;5115142;28;20386;-25
2022/01/22 05:41:51;;;;;;;2.50;0.68;;;;;;;12.47;33.06;97568.31;5096778;28;20380;-26
2022/01/22 05:44:17;;;;;;;1.33;0.70;;;;;;;12.39;32.93;97566.88;5115111;28;20048;-25
2022/01/22 05:46:43;;;;;;;1.73;0.82;;;;;;;12.52;33.33;97570.56;5115190;28;20090;-25
2022/01/22 05:49:09;;;;;;;1.92;0.70;;;;;;;12.51;32.89;97572.53;5115140;28;20020;-25
2022/01/22 05:51:37;;;;;;;1.60;0.90;;;;;;;12.47;32.65;97582.69;5114920;28;20471;-25
2022/01/22 05:59:37;;;;;;;1.15;0.73;;;;;;;12.51;32.88;97597.00;5114585;28;20077;-25
2022/01/22 06:02:07;;;;;;;1.63;0.60;;;;;;;12.41;32.41;97578.88;5114711;28;20101;-25
2022/01/22 06:04:33;;;;;;;1.65;0.85;;;;;;;12.49;32.91;97588.47;5114718;28;20027;-25
2022/01/22 06:06:59;;;;;;;1.17;0.90;;;;;;;12.51;32.50;97597.00;5114548;28;20030;-25
2022/01/22 06:09:26;;;;;;;1.38;0.80;;;;;;;12.41;32.28;97599.88;5114777;28;20051;-26
2022/01/22 06:11:56;;;;;;;1.58;0.70;;;;;;;12.41;32.91;97608.81;5114847;28;20023;-25
2022/01/22 06:14:21;;;;;;;1.67;1.10;;;;;;;12.49;32.43;97604.03;5114620;28;20120;-25
2022/01/22 06:16:47;;;;;;;1.27;0.80;;;;;;;12.52;33.02;97593.09;5114461;28;20045;-25
2022/01/22 06:19:12;;;;;;;1.75;0.98;;;;;;;12.53;32.61;97599.31;5114605;28;20468;-25
2022/01/22 06:21:38;;;;;;;2.25;0.95;;;;;;;12.52;32.52;97593.09;5114467;28;20480;-26
2022/01/22 06:24:04;;;;;;;3.17;0.75;;;;;;;12.51;32.20;97598.97;5114364;28;20024;-26
2022/01/22 06:26:29;;;;;;;3.83;0.80;;;;;;;12.53;31.95;97599.31;5114440;28;20023;-25
2022/01/22 06:28:55;;;;;;;1.50;0.75;;;;;;;12.45;32.76;97597.91;5117907;27;20031;-25
2022/01/22 06:31:20;;;;;;;2.22;0.88;;;;;;;12.43;32.34;97594.81;5132782;27;20023;-25
2022/01/22 06:33:46;;;;;;;1.70;0.82;;;;;;;12.42;32.30;97591.31;5125069;27;20015;-26
2022/01/22 06:36:12;;;;;;;3.42;0.95;;;;;;;12.39;32.13;97589.41;5112011;28;20031;-25
2022/01/22 06:38:38;;;;;;;1.65;0.75;;;;;;;12.38;32.11;97593.31;5112318;28;20027;-25
2022/01/22 06:43:47;;;;;;;2.05;0.70;;;;;;;12.51;32.13;97588.84;5112276;28;20039;-25
2022/01/22 06:46:12;;;;;;;1.58;0.73;;;;;;;12.46;32.37;97583.88;5121986;27;20387;-25
2022/01/22 06:48:38;;;;;;;1.95;0.95;;;;;;;12.49;32.39;97583.03;5132508;27;20472;-26
2022/01/22 06:51:03;;;;;;;1.50;0.90;;;;;;;12.42;32.43;97585.88;5131819;27;20071;-25
2022/01/22 06:53:29;;;;;;;2.90;0.85;;;;;;;12.49;31.92;97582.25;5132419;27;20031;-25
2022/01/22 06:55:59;;;;;;;1.23;0.80;;;;;;;12.43;31.80;97579.25;5132236;27;20470;-25
2022/01/22 06:58:24;;;;;;;2.75;0.75;;;;;;;12.47;32.31;97581.94;5132238;27;20047;-25
2022/01/22 07:00:51;;;;;;;3.25;0.90;;;;;;;12.44;32.21;97585.47;5132292;27;20054;-25
2022/01/22 07:03:17;;;;;;;1.60;0.70;;;;;;;12.46;32.13;97591.28;5132167;27;20035;-25
2022/01/22 07:05:42;;;;;;;1.35;0.70;;;;;;;12.44;32.02;97596.34;5132129;27;20096;-26
2022/01/22 07:08:08;;;;;;;1.63;0.90;;;;;;;12.48;32.30;97581.53;5132206;27;20015;-25
2022/01/22 07:10:33;;;;;;;1.42;0.70;;;;;;;12.47;32.00;97574.53;5111655;28;20080;-26
2022/01/22 07:12:59;;;;;;;2.55;1.27;;;;;;;12.42;32.36;97572.28;5132108;27;20020;-26
2022/01/22 07:15:25;;;;;;;2.80;1.42;;;;;;;12.45;32.28;97587.78;5131971;28;20019;-25
2022/01/22 07:17:50;;;;;;;2.35;1.42;;;;;;;12.45;32.64;97582.34;5132021;28;20058;-25
2022/01/22 07:20:24;;;;;;;2.13;1.30;;;;;;;12.44;32.00;97590.91;5131994;28;20468;-26
2022/01/22 07:22:52;;;;;;;3.05;1.35;;;;;;;12.49;32.48;97593.91;5121103;28;20020;-26
2022/01/22 07:25:18;;;;;;;2.45;1.48;;;;;;;12.37;31.75;97597.19;5111677;28;20031;-26
2022/01/22 07:27:45;;;;;;;3.35;1.50;;;;;;;12.49;32.67;97595.88;5111314;28;20026;-25
2022/01/22 07:30:11;;;;;;;2.20;1.27;;;;;;;12.48;32.60;97586.97;5111719;28;20386;-26
2022/01/22 07:32:41;;;;;;;2.80;1.70;;;;;;;12.55;32.54;97588.81;5111457;28;20039;-25
2022/01/22 07:35:07;;;;;;;2.28;1.80;;;;;;;12.48;31.88;97603.28;5111607;28;20059;-25
2022/01/22 07:37:33;;;;;;;2.00;1.50;;;;;;;12.45;32.09;97589.72;5111423;28;20066;-25
2022/01/22 07:39:58;;;;;;;3.55;1.60;;;;;;;12.42;31.99;97585.88;5111073;28;20031;-25
2022/01/22 07:42:24;;;;;;;2.90;1.20;;;;;;;12.47;32.26;97584.66;5111245;28;20032;-25
2022/01/22 07:44:49;;;;;;;2.13;1.00;;;;;;;12.42;32.20;97583.16;5111287;28;20076;-25
2022/01/22 07:47:15;;;;;;;2.65;1.30;;;;;;;12.43;32.38;97590.13;5111422;28;20056;-25
2022/01/22 07:49:41;;;;;;;1.77;1.13;;;;;;;12.35;31.72;97593.38;5111452;28;20103;-25
2022/01/22 07:52:07;;;;;;;3.17;1.30;;;;;;;12.53;32.04;97597.38;5111285;28;20685;-25
2022/01/22 07:54:34;;;;;;;2.40;1.27;;;;;;;12.43;31.62;97590.13;5115167;28;20483;-25
2022/01/22 07:57:01;;;;;;;3.17;1.42;;;;;;;12.51;31.70;97602.44;5096753;28;20031;-25
2022/01/22 07:59:27;;;;;;;3.08;1.20;;;;;;;12.58;31.96;97596.94;5114999;28;20062;-26
2022/01/22 08:01:52;;;;;;;2.33;1.00;;;;;;;12.50;32.06;97609.06;5115178;28;20032;-25
2022/01/22 08:04:23;;;;;;;3.17;1.27;;;;;;;12.53;31.68;97610.22;5114160;28;20383;-25
2022/01/22 08:06:49;;;;;;;2.90;1.05;;;;;;;12.46;32.50;97602.94;5114903;28;20050;-25
2022/01/22 08:09:14;;;;;;;1.75;1.13;;;;;;;12.46;32.44;97602.94;5114994;28;20066;-25
2022/01/22 08:11:40;;;;;;;2.65;1.30;;;;;;;12.53;32.03;97607.47;5113242;28;20035;-25
2022/01/22 08:14:08;;;;;;;2.50;1.35;;;;;;;12.51;32.16;97599.72;5114991;28;20032;-26
2022/01/22 08:16:34;;;;;;;3.53;1.33;;;;;;;12.49;32.22;97598.59;5114441;28;20519;-25
2022/01/22 08:19:00;;;;;;;5.18;1.80;;;;;;;11.43;32.26;97595.19;5131710;27;20079;-26
2022/01/22 08:21:25;;;;;;;6.68;4.18;;;;;;;11.67;31.84;97599.59;5137341;27;20019;-26
2022/01/22 08:23:51;;;;;;;5.60;4.20;;;;;;;11.92;30.93;97599.34;5137061;27;20023;-26
2022/01/22 08:26:20;;;;;;;5.28;3.80;;;;;;;12.11;30.92;97600.69;5137130;27;20023;-26
2022/01/22 08:28:57;;;;;;;6.18;3.88;;;;;;;12.19;31.11;97613.78;5137240;27;20054;-26
2022/01/22 08:36:42;;;;;;;7.00;3.78;;;;;;;12.38;31.39;97609.63;5137169;27;20029;-26
2022/01/22 08:39:08;;;;;;;6.30;4.15;;;;;;;12.34;31.97;97619.81;5137097;27;20023;-26
2022/01/22 08:41:34;;;;;;;4.63;3.50;;;;;;;12.42;31.74;97615.03;5136966;27;20116;-26
2022/01/22 08:44:00;;;;;;;7.80;3.92;;;;;;;12.44;31.43;97620.84;5136857;27;20027;-26
2022/01/22 08:46:27;;;;;;;4.60;3.40;;;;;;;12.42;31.99;97626.69;5118450;27;20027;-26
2022/01/22 08:48:53;;;;;;;5.30;2.92;;;;;;;12.41;31.92;97621.66;5136732;27;20027;-26
2022/01/22 08:51:18;;;;;;;6.63;3.08;;;;;;;12.44;31.79;97613.44;5136802;27;20082;-26
2022/01/22 08:53:46;;;;;;;3.17;2.53;;;;;;;12.42;32.04;97610.34;5136785;27;20038;-29
2022/01/22 08:56:12;;;;;;;5.15;2.97;;;;;;;12.39;31.77;97605.72;5136626;27;20076;-26
2022/01/22 08:58:38;;;;;;;4.00;2.40;;;;;;;12.35;31.92;97598.81;5136426;27;20078;-26
2022/01/22 09:01:03;;;;;;;4.72;2.70;;;;;;;12.36;31.81;97590.25;5118078;27;20051;-27
2022/01/22 09:03:30;;;;;;;4.65;2.63;;;;;;;12.42;31.98;97583.16;5136493;27;20034;-26
2022/01/22 09:05:56;;;;;;;3.90;2.85;;;;;;;12.43;32.18;97594.81;5135844;27;20387;-26
2022/01/22 09:08:24;;;;;;;5.07;2.40;;;;;;;11.47;30.81;97593.97;5136239;27;20023;-27
2022/01/22 09:10:52;;;;;;;3.88;2.20;;;;;;;11.63;30.64;97601.56;5135591;27;20042;-27
2022/01/22 09:13:19;;;;;;;7.43;2.65;;;;;;;11.91;30.93;97602.47;5136055;27;20555;-26
2022/01/22 09:15:45;;;;;;;4.78;3.22;;;;;;;12.11;30.30;97600.69;5136277;27;20107;-27
2022/01/22 09:18:11;;;;;;;5.35;3.50;;;;;;;12.22;30.52;97617.63;5136249;27;20053;-26
2022/01/22 09:23:02;;;;;;;4.63;3.70;;;;;;;12.25;30.74;97611.34;5136212;27;20390;-27
2022/01/22 09:25:28;;;;;;;5.15;3.60;;;;;;;12.36;30.93;97620.16;5135916;27;20035;-27
2022/01/22 09:27:53;;;;;;;6.47;4.45;;;;;;;12.44;31.10;97629.78;5135647;27;20084;-27
2022/01/22 09:30:19;;;;;;;3.60;3.08;;;;;;;12.44;31.43;97642.59;5135966;27;20370;-27
2022/01/22 09:32:45;;;;;;;3.70;2.92;;;;;;;12.39;31.28;97643.81;5135827;27;20042;-26
2022/01/22 09:35:10;;;;;;;3.28;2.55;;;;;;;12.46;30.70;97649.19;5135753;27;20030;-27
2022/01/22 09:37:36;;;;;;;3.78;2.67;;;;;;;12.44;31.12;97654.25;5135751;27;20050;-26
2022/01/22 09:40:01;;;;;;;5.10;2.90;;;;;;;12.50;31.20;97649.13;5135795;27;20050;-26
2022/01/22 09:42:28;;;;;;;3.13;2.42;;;;;;;12.51;31.32;97645.22;5135326;27;20110;-26
2022/01/22 09:44:53;;;;;;;5.05;2.50;;;;;;;12.53;31.44;97649.06;5135704;27;20038;-26
2022/01/22 09:47:20;;;;;;;3.63;2.53;;;;;;;12.42;31.56;97666.72;5135657;27;20019;-26
2022/01/22 09:49:46;;;;;;;4.55;2.47;;;;;;;12.49;31.74;97664.66;5135314;27;20019;-26
2022/01/22 09:52:12;;;;;;;3.50;2.42;;;;;;;12.56;31.83;97667.31;5135690;27;20023;-28
2022/01/22 09:54:38;;;;;;;3.00;2.10;;;;;;;12.56;31.29;97670.03;5135508;27;20114;-26
2022/01/22 09:57:05;;;;;;;3.63;2.45;;;;;;;12.53;31.84;97665.41;5135258;27;20065;-28
2022/01/22 09:59:31;;;;;;;3.47;2.22;;;;;;;12.50;31.58;97670.88;5135018;27;20082;-27
2022/01/22 10:02:17;;;;;;;3.45;2.38;;;;;;;12.54;32.04;97669.66;5135335;27;20027;-29
2022/01/22 10:04:52;;;;;;;3.33;2.10;;;;;;;12.50;31.87;97679.81;5135437;27;20037;-26
2022/01/22 10:07:23;;;;;;;2.85;1.80;;;;;;;12.58;32.09;97673.13;5134919;27;20031;-26
2022/01/22 10:10:01;;;;;;;2.90;2.00;;;;;;;12.53;31.84;97672.78;5135279;27;20022;-26
2022/01/22 10:12:29;;;;;;;3.35;1.90;;;;;;;12.51;32.37;97675.91;5135160;27;20105;-27
2022/01/22 10:15:06;;;;;;;4.32;2.10;;;;;;;12.45;32.46;97674.06;5116813;27;20420;-28
2022/01/22 10:17:52;;;;;;;3.70;1.85;;;;;;;12.44;32.69;97667.84;5131624;27;20030;-27
2022/01/22 10:20:21;;;;;;;3.05;2.00;;;;;;;12.54;32.12;97679.78;5134177;27;20027;-27
2022/01/22 10:22:59;;;;;;;4.75;2.17;;;;;;;11.61;33.39;97671.09;5134585;27;20027;-28
2022/01/22 10:25:36;;;;;;;7.25;2.15;;;;;;;12.08;32.62;97666.75;5135108;27;20102;-26
2022/01/22 10:28:10;;;;;;;7.18;2.75;;;;;;;12.33;32.53;97667.22;5135220;27;20030;-27
2022/01/22 10:30:41;;;;;;;4.70;2.70;;;;;;;12.26;32.14;97658.38;5134948;27;20035;-26
2022/01/22 10:35:43;;;;;;;4.10;2.60;;;;;;;12.49;32.52;97667.38;5134952;27;20488;-27
2022/01/22 10:38:08;;;;;;;4.22;2.40;;;;;;;12.46;31.64;97660.06;5134750;27;20031;-27
2022/01/22 10:40:37;;;;;;;4.63;2.50;;;;;;;12.53;32.50;97657.25;5134584;27;20019;-28
2022/01/22 10:43:32;;;;;;;2.92;2.10;;;;;;;12.65;32.26;97668.75;5134884;27;20104;-26
2022/01/22 10:49:14;;;;;;;4.05;1.80;;;;;;;12.32;33.17;97665.69;5134435;27;20050;-26
2022/01/22 10:51:48;;;;;;;3.15;2.03;;;;;;;12.32;32.89;97667.63;5134679;27;20037;-26
2022/01/22 10:54:15;;;;;;;3.35;1.98;;;;;;;12.45;33.24;97663.97;5134420;27;20046;-26
2022/01/22 10:56:41;;;;;;;3.08;1.65;;;;;;;12.29;33.36;97663.75;5134337;27;20019;-26
2022/01/22 10:59:12;;;;;;;2.30;1.70;;;;;;;12.40;33.51;97661.69;5134330;27;20043;-26
2022/01/22 11:01:45;;;;;;;4.07;1.75;;;;;;;12.41;32.93;97657.78;5134303;27;20026;-27
2022/01/22 11:04:16;;;;;;;2.33;1.50;;;;;;;12.61;33.12;97654.44;5134533;27;20031;-26
2022/01/22 11:06:55;;;;;;;2.28;1.63;;;;;;;12.66;33.18;97648.53;5134466;27;20071;-26
2022/01/22 11:09:23;;;;;;;3.55;2.20;;;;;;;12.67;33.36;97641.91;5134215;27;20103;-26
2022/01/22 11:11:49;;;;;;;3.28;1.58;;;;;;;12.39;33.33;97637.59;5134300;27;20019;-27
2022/01/22 11:14:15;;;;;;;3.22;2.08;;;;;;;12.57;33.20;97643.59;5134299;27;20019;-27
2022/01/22 11:16:44;;;;;;;2.92;1.88;;;;;;;12.52;33.44;97644.81;5134310;28;20535;-26
2022/01/22 11:19:11;;;;;;;3.33;1.67;;;;;;;12.65;33.17;97638.81;5134183;28;20084;-26
2022/01/22 11:21:44;;;;;;;2.45;1.52;;;;;;;12.62;33.43;97645.06;5134201;28;20020;-27
2022/01/22 11:24:18;;;;;;;2.97;1.50;;;;;;;12.50;32.96;97643.66;5134193;28;20053;-26
2022/01/22 11:26:50;;;;;;;3.50;1.75;;;;;;;12.50;33.45;97641.72;5134130;28;20098;-26
2022/01/22 11:29:17;;;;;;;3.50;1.80;;;;;;;12.66;33.30;97637.63;5137749;27;20514;-27
2022/01/22 11:31:45;;;;;;;3.28;1.75;;;;;;;12.69;33.07;97628.66;5138259;27;20022;-26
2022/01/22 11:34:14;;;;;;;3.40;2.00;;;;;;;12.68;33.17;97633.31;5138657;27;20019;-26
2022/01/22 11:36:47;;;;;;;14.07;2.17;;;;;;;12.68;32.99;97630.59;5138231;27;20067;-26
2022/01/22 11:39:20;;;;;;;2.42;1.48;;;;;;;12.75;32.79;97624.28;5138281;27;20015;-26
2022/01/22 11:41:53;;;;;;;;;;;;;;;12.74;33.03;97625.44;5137763;27;20027;-26
2022/01/22 11:44:50;;;;;;;2.72;1.48;;;;;;;12.68;33.29;97632.56;5136473;27;20278;-26
2022/01/22 11:47:22;;;;;;;3.92;1.50;;;;;;;12.56;32.87;97634.66;5136018;27;20015;-27
2022/01/22 11:50:08;;;;;;;3.13;1.48;;;;;;;12.69;33.37;97634.88;5136141;27;20420;-26
2022/01/22 11:52:37;;;;;;;2.20;1.50;;;;;;;12.76;33.19;97636.72;5135619;27;20375;-26
2022/01/22 11:55:11;;;;;;;2.67;1.40;;;;;;;12.28;32.30;97621.41;5135955;27;20435;-29
2022/01/22 11:57:37;;;;;;;;;;;;;;;12.72;32.21;97633.28;5135765;27;20027;-29
2022/01/22 12:00:25;;;;;;;5.78;1.55;;;;;;;13.17;31.57;97620.94;5135352;27;19984;-28
2022/01/22 12:03:02;;;;;;;3.95;1.45;;;;;;;13.41;31.51;97618.97;5135463;27;20049;-27
2022/01/22 12:05:28;;;;;;;2.83;1.38;;;;;;;13.57;31.41;97624.53;5135794;27;20047;-27
2022/01/22 12:07:58;;;;;;;2.92;1.30;;;;;;;13.69;31.08;97623.16;5135157;27;20498;-27
2022/01/22 12:10:41;;;;;;;3.00;1.60;;;;;;;13.74;31.26;97625.38;5135635;27;20098;-27
2022/01/22 12:16:16;;;;;;;2.38;1.27;;;;;;;13.83;31.59;97628.34;5135546;27;20042;-27
2022/01/22 12:18:56;;;;;;;2.90;1.25;;;;;;;13.86;31.33;97627.47;5135256;27;20160;-28
2022/01/22 12:21:48;;;;;;;1.98;1.23;;;;;;;13.92;31.11;97620.38;5134711;27;20048;-27
2022/01/22 12:24:30;;;;;;;2.58;1.30;;;;;;;13.93;30.94;97610.22;5130373;27;20526;-27
2022/01/22 12:27:01;;;;;;;2.83;1.48;;;;;;;13.90;31.51;97605.59;5134747;27;20035;-28
2022/01/22 12:29:27;;;;;;;2.22;1.20;;;;;;;13.85;31.32;97606.84;5135557;27;20076;-27
2022/01/22 12:32:14;;;;;;;2.83;1.20;;;;;;;13.90;31.25;97598.19;5135028;27;20043;-27
2022/01/22 12:35:08;;;;;;;2.38;1.20;;;;;;;13.91;31.37;97596.25;5133430;27;20027;-28
2022/01/22 12:37:38;;;;;;;;;;;;;;;13.83;31.87;97603.03;5135298;27;20030;-26
2022/01/22 12:40:06;;;;;;;2.72;1.27;;;;;;;13.84;32.05;97601.84;5133732;27;20343;-27
2022/01/22 12:42:57;;;;;;;2.30;1.13;;;;;;;13.93;31.59;97605.53;5134927;27;20383;-27
2022/01/22 12:45:25;;;;;;;3.20;1.50;;;;;;;13.87;31.53;97590.84;5123730;27;20028;-27
2022/01/22 12:47:51;;;;;;;2.80;1.58;;;;;;;13.88;31.41;97586.94;5126569;27;20111;-27
2022/01/22 12:50:23;;;;;;;2.58;1.73;;;;;;;13.88;31.61;97586.16;5124590;27;20055;-27
2022/01/22 12:52:51;;;;;;;1.95;1.08;;;;;;;13.88;31.77;97589.66;5122295;27;20023;-26
2022/01/22 12:55:20;;;;;;;3.22;1.55;;;;;;;13.88;32.15;97584.22;5120959;27;20031;-27
2022/01/22 12:57:45;;;;;;;3.25;1.23;;;;;;;13.92;32.22;97582.19;5134196;27;20114;-27
2022/01/22 13:00:15;;;;;;;2.78;1.40;;;;;;;13.88;32.22;97586.16;5098662;27;20114;-27
2022/01/22 13:02:45;;;;;;;2.58;1.50;;;;;;;13.92;32.40;97586.88;5134263;27;20031;-28
2022/01/22 13:05:13;;;;;;;2.97;1.60;;;;;;;13.85;32.63;97582.31;5126790;27;20391;-28
2022/01/22 13:07:41;;;;;;;2.83;1.40;;;;;;;13.83;32.62;97590.16;5131745;27;20027;-30
2022/01/22 13:10:09;;;;;;;2.63;1.33;;;;;;;13.82;32.55;97583.19;5127174;27;20050;-29
2022/01/22 13:12:36;;;;;;;2.88;1.20;;;;;;;13.83;32.81;97578.50;5134190;27;20390;-27
2022/01/22 13:15:03;;;;;;;1.83;1.30;;;;;;;13.83;32.69;97579.25;5133575;27;20023;-28
2022/01/22 13:17:32;;;;;;;2.92;1.38;;;;;;;13.85;32.82;97576.84;5115399;27;20031;-27
2022/01/22 13:19:59;;;;;;;1.80;1.17;;;;;;;13.80;33.36;97574.63;5129406;27;20039;-27
2022/01/22 13:22:31;;;;;;;2.70;1.30;;;;;;;13.81;33.13;97578.91;5134318;27;20031;-30